createdAt,value
2018-03-15T00:00:18.691Z,2.80
2018-03-15T00:02:47.037Z,2.60
2018-03-15T00:05:13.388Z,2.70
2018-03-15T00:07:40.464Z,2.60
2018-03-15T00:10:06.791Z,2.50
2018-03-15T00:12:33.166Z,2.70
2018-03-15T00:14:59.489Z,2.70
2018-03-15T00:17:25.864Z,2.70
2018-03-15T00:19:53.683Z,2.60
2018-03-15T00:22:20.002Z,2.60
2018-03-15T00:24:46.334Z,2.60
2018-03-15T00:27:12.669Z,2.70
2018-03-15T00:29:39.010Z,2.60
2018-03-15T00:32:05.376Z,2.70
2018-03-15T00:34:32.431Z,2.70
2018-03-15T00:36:59.502Z,2.70
2018-03-15T00:39:25.826Z,2.70
2018-03-15T00:41:52.150Z,2.70
2018-03-15T00:44:19.219Z,2.90
2018-03-15T00:46:45.506Z,2.80
2018-03-15T00:49:12.586Z,2.90
2018-03-15T00:51:38.878Z,2.80
2018-03-15T00:54:05.938Z,2.80
2018-03-15T00:56:32.988Z,2.90
2018-03-15T00:59:00.065Z,3.00
2018-03-15T01:01:26.402Z,3.00
2018-03-15T01:03:52.739Z,3.00
2018-03-15T01:06:19.069Z,2.90
2018-03-15T01:08:45.401Z,2.80
2018-03-15T01:11:11.730Z,2.60
2018-03-15T01:13:38.061Z,2.80
2018-03-15T01:16:04.400Z,2.80
2018-03-15T01:18:30.751Z,2.80
2018-03-15T01:20:57.064Z,2.80
2018-03-15T01:23:23.398Z,2.80
2018-03-15T01:25:49.740Z,2.80
2018-03-15T01:28:16.056Z,2.70
2018-03-15T01:30:42.381Z,2.70
2018-03-15T01:33:08.698Z,2.80
2018-03-15T01:35:35.015Z,2.70
2018-03-15T01:38:02.238Z,2.70
2018-03-15T01:40:29.320Z,2.90
2018-03-15T01:42:55.618Z,2.80
2018-03-15T01:45:21.978Z,2.70
2018-03-15T01:47:48.312Z,2.70
2018-03-15T01:50:14.641Z,2.70
2018-03-15T01:52:40.941Z,2.70
2018-03-15T01:55:07.296Z,2.70
2018-03-15T01:57:33.599Z,2.90
2018-03-15T02:00:00.673Z,2.80
2018-03-15T02:02:27.003Z,2.80
2018-03-15T02:04:53.366Z,2.70
2018-03-15T02:07:20.329Z,2.70
2018-03-15T02:09:47.553Z,2.90
2018-03-15T02:12:13.876Z,2.90
2018-03-15T02:14:40.228Z,2.90
2018-03-15T02:17:06.539Z,2.80
2018-03-15T02:19:32.910Z,2.90
2018-03-15T02:22:00.010Z,2.90
2018-03-15T02:24:26.367Z,2.80
2018-03-15T02:26:52.711Z,2.90
2018-03-15T02:29:19.010Z,2.80
2018-03-15T02:31:45.356Z,2.90
2018-03-15T02:34:11.676Z,3.10
2018-03-15T02:36:38.025Z,3.10
2018-03-15T02:39:04.358Z,3.20
2018-03-15T02:41:30.672Z,3.00
2018-03-15T02:43:56.985Z,2.90
2018-03-15T02:46:23.310Z,2.80
2018-03-15T02:48:49.631Z,3.00
2018-03-15T02:51:15.962Z,3.00
2018-03-15T02:53:42.252Z,3.00
2018-03-15T02:56:08.582Z,3.00
2018-03-15T02:58:35.642Z,3.00
2018-03-15T03:01:02.778Z,3.10
2018-03-15T03:03:30.571Z,3.10
2018-03-15T03:05:56.917Z,3.10
2018-03-15T03:08:23.233Z,3.10
2018-03-15T03:10:49.540Z,3.00
2018-03-15T03:13:16.631Z,3.10
2018-03-15T03:15:42.952Z,3.10
2018-03-15T03:18:09.276Z,3.20
2018-03-15T03:20:35.603Z,3.10
2018-03-15T03:23:02.148Z,3.20
2018-03-15T03:25:28.442Z,3.30
2018-03-15T03:27:54.772Z,3.10
2018-03-15T03:30:21.062Z,3.10
2018-03-15T03:32:47.378Z,3.10
2018-03-15T03:35:13.702Z,3.20
2018-03-15T03:37:40.031Z,3.10
2018-03-15T03:40:06.358Z,3.10
2018-03-15T03:42:32.749Z,3.10
2018-03-15T03:45:00.650Z,3.00
2018-03-15T03:47:26.991Z,3.00
2018-03-15T03:49:53.317Z,3.00
2018-03-15T03:52:19.632Z,3.20
2018-03-15T03:54:46.678Z,3.10
2018-03-15T03:57:13.026Z,3.00
2018-03-15T03:59:39.334Z,3.20
2018-03-15T04:02:06.426Z,3.20
2018-03-15T04:04:32.751Z,3.10
2018-03-15T04:06:59.063Z,3.20
2018-03-15T04:09:25.400Z,3.10
2018-03-15T04:11:51.752Z,3.20
2018-03-15T04:14:18.106Z,3.10
2018-03-15T04:16:44.442Z,3.10
2018-03-15T04:19:10.775Z,3.00
2018-03-15T04:21:38.566Z,3.00
2018-03-15T04:24:04.893Z,3.00
2018-03-15T04:26:31.950Z,3.00
2018-03-15T04:28:58.275Z,3.00
2018-03-15T04:31:24.578Z,3.00
2018-03-15T04:33:50.926Z,3.00
2018-03-15T04:36:17.977Z,3.00
2018-03-15T04:38:44.318Z,3.00
2018-03-15T04:41:10.632Z,3.10
2018-03-15T04:43:37.695Z,3.30
2018-03-15T04:46:04.006Z,3.20
2018-03-15T04:48:31.069Z,3.10
2018-03-15T04:50:58.109Z,3.10
2018-03-15T04:53:25.185Z,3.10
2018-03-15T04:55:51.527Z,3.10
2018-03-15T04:58:17.872Z,3.00
2018-03-15T05:00:44.178Z,3.00
2018-03-15T05:03:10.522Z,3.00
2018-03-15T05:05:36.852Z,2.90
2018-03-15T05:08:03.197Z,3.10
2018-03-15T05:10:29.558Z,3.10
2018-03-15T05:12:55.923Z,3.10
2018-03-15T05:15:22.273Z,3.10
2018-03-15T05:17:48.591Z,3.20
2018-03-15T05:20:14.938Z,3.10
2018-03-15T05:22:41.278Z,3.10
2018-03-15T05:25:07.667Z,3.10
2018-03-15T05:27:33.982Z,3.10
2018-03-15T05:30:01.050Z,3.10
2018-03-15T05:32:27.362Z,3.00
2018-03-15T05:34:54.437Z,3.10
2018-03-15T05:37:20.754Z,3.00
2018-03-15T05:39:47.839Z,3.00
2018-03-15T05:42:14.162Z,3.00
2018-03-15T05:44:40.500Z,3.10
2018-03-15T05:47:06.805Z,3.20
2018-03-15T05:49:33.139Z,3.10
2018-03-15T05:51:59.515Z,3.00
2018-03-15T05:54:25.916Z,3.10
2018-03-15T05:56:52.251Z,3.20
2018-03-15T05:59:18.563Z,3.10
2018-03-15T06:01:44.908Z,3.10
2018-03-15T06:04:11.775Z,3.00
2018-03-15T06:06:38.528Z,3.00
2018-03-15T06:09:05.082Z,2.90
2018-03-15T06:11:31.423Z,3.00
2018-03-15T06:13:57.792Z,3.10
2018-03-15T06:16:24.106Z,3.00
2018-03-15T06:18:50.474Z,3.00
2018-03-15T06:21:16.811Z,3.00
2018-03-15T06:23:43.154Z,3.00
2018-03-15T06:26:09.478Z,3.10
2018-03-15T06:28:35.789Z,3.00
2018-03-15T06:31:02.126Z,3.20
2018-03-15T06:33:28.463Z,3.10
2018-03-15T06:35:54.819Z,3.10
2018-03-15T06:38:21.151Z,3.20
2018-03-15T06:40:47.516Z,3.20
2018-03-15T06:43:13.918Z,3.10
2018-03-15T06:45:40.963Z,3.20
2018-03-15T06:48:08.034Z,3.30
2018-03-15T06:50:34.374Z,3.20
2018-03-15T06:53:00.721Z,3.20
2018-03-15T06:55:27.053Z,3.10
2018-03-15T06:57:53.409Z,3.40
2018-03-15T07:00:20.486Z,3.40
2018-03-15T07:02:46.836Z,3.40
2018-03-15T07:05:13.187Z,3.30
2018-03-15T07:07:39.524Z,3.20
2018-03-15T07:10:05.814Z,3.10
2018-03-15T07:12:32.157Z,3.10
2018-03-15T07:14:58.482Z,3.20
2018-03-15T07:17:24.842Z,3.20
2018-03-15T07:19:51.167Z,3.30
2018-03-15T07:22:17.503Z,3.10
2018-03-15T07:24:44.043Z,3.20
2018-03-15T07:27:10.363Z,3.30
2018-03-15T07:29:36.676Z,3.20
2018-03-15T07:32:03.005Z,3.30
2018-03-15T07:34:30.056Z,3.20
2018-03-15T07:36:56.387Z,3.10
2018-03-15T07:39:22.791Z,3.20
2018-03-15T07:41:49.835Z,3.30
2018-03-15T07:44:16.909Z,3.30
2018-03-15T07:46:43.285Z,3.30
2018-03-15T07:49:09.617Z,3.30
2018-03-15T07:51:35.917Z,3.30
2018-03-15T07:54:02.239Z,3.20
2018-03-15T07:56:28.560Z,3.20
2018-03-15T07:58:54.894Z,3.10
2018-03-15T08:01:21.209Z,2.90
2018-03-15T08:03:47.553Z,3.00
2018-03-15T08:06:13.887Z,3.00
2018-03-15T08:08:40.230Z,3.00
2018-03-15T08:11:06.539Z,3.10
2018-03-15T08:13:32.896Z,3.00
2018-03-15T08:15:59.277Z,3.10
2018-03-15T08:18:26.356Z,3.10
2018-03-15T08:20:52.687Z,3.00
2018-03-15T08:23:19.021Z,3.10
2018-03-15T08:25:45.357Z,3.10
2018-03-15T08:28:11.693Z,3.10
2018-03-15T08:30:37.997Z,3.20
2018-03-15T08:33:04.338Z,3.10
2018-03-15T08:35:30.702Z,3.30
2018-03-15T08:37:57.019Z,3.30
2018-03-15T08:40:23.337Z,3.40
2018-03-15T08:42:49.657Z,3.30
2018-03-15T08:45:16.014Z,3.20
2018-03-15T08:47:42.342Z,3.20
2018-03-15T08:50:08.697Z,3.20
2018-03-15T08:52:35.770Z,3.30
2018-03-15T08:55:02.872Z,3.30
2018-03-15T08:57:29.189Z,3.20
2018-03-15T08:59:55.529Z,3.30
2018-03-15T09:02:21.841Z,3.30
2018-03-15T09:04:48.174Z,3.40
2018-03-15T09:07:14.530Z,3.50
2018-03-15T09:09:40.861Z,3.40
2018-03-15T09:12:07.188Z,3.40
2018-03-15T09:14:33.519Z,3.40
2018-03-15T09:16:59.879Z,3.30
2018-03-15T09:19:26.955Z,3.40
2018-03-15T09:21:53.299Z,3.40
2018-03-15T09:24:19.651Z,3.30
2018-03-15T09:26:45.973Z,3.40
2018-03-15T09:29:12.316Z,3.40
2018-03-15T09:31:38.626Z,3.40
2018-03-15T09:34:04.984Z,3.30
2018-03-15T09:36:32.077Z,3.40
2018-03-15T09:38:58.414Z,3.40
2018-03-15T09:41:24.774Z,3.40
2018-03-15T09:43:51.295Z,3.30
2018-03-15T09:46:17.663Z,3.40
2018-03-15T09:48:44.002Z,3.40
2018-03-15T09:51:11.115Z,3.50
2018-03-15T09:53:37.436Z,3.50
2018-03-15T09:56:03.825Z,3.70
2018-03-15T09:58:30.171Z,3.90
2018-03-15T10:00:56.530Z,4.00
2018-03-15T10:03:22.881Z,3.90
2018-03-15T10:05:49.258Z,3.70
2018-03-15T10:08:15.599Z,3.50
2018-03-15T10:10:41.958Z,3.70
2018-03-15T10:13:08.362Z,3.60
2018-03-15T10:15:34.719Z,3.70
2018-03-15T10:18:01.050Z,3.80
2018-03-15T10:20:27.406Z,3.80
2018-03-15T10:22:53.741Z,3.90
2018-03-15T10:25:26.390Z,3.80
2018-03-15T10:27:46.486Z,3.70
2018-03-15T10:30:12.912Z,3.80
2018-03-15T10:32:39.203Z,3.70
2018-03-15T10:35:11.721Z,3.80
2018-03-15T10:37:38.099Z,3.60
2018-03-15T10:40:05.189Z,3.70
2018-03-15T10:42:31.568Z,3.70
2018-03-15T10:44:57.952Z,3.80
2018-03-15T10:47:24.324Z,3.70
2018-03-15T10:49:50.677Z,3.50
2018-03-15T10:52:17.028Z,3.50
2018-03-15T10:54:43.402Z,3.60
2018-03-15T10:57:10.613Z,3.50
2018-03-15T10:59:37.032Z,3.50
2018-03-15T11:02:05.449Z,3.50
2018-03-15T11:04:33.677Z,3.60
2018-03-15T11:07:03.867Z,3.50
2018-03-15T11:09:30.335Z,3.50
2018-03-15T11:11:56.808Z,3.60
2018-03-15T11:14:23.229Z,3.50
2018-03-15T11:16:49.623Z,3.60
2018-03-15T11:19:15.996Z,3.60
2018-03-15T11:21:42.334Z,3.70
2018-03-15T11:24:08.673Z,3.50
2018-03-15T11:26:35.044Z,3.60
2018-03-15T11:29:01.416Z,3.70
2018-03-15T11:31:27.756Z,3.70
2018-03-15T11:33:54.108Z,3.60
2018-03-15T11:36:20.437Z,3.70
2018-03-15T11:38:46.763Z,3.80
2018-03-15T11:41:13.098Z,3.70
2018-03-15T11:43:40.186Z,3.80
2018-03-15T11:46:06.538Z,3.80
2018-03-15T11:48:32.917Z,4.00
2018-03-15T11:50:59.265Z,4.00
2018-03-15T11:53:25.640Z,4.20
2018-03-15T11:55:51.975Z,4.20
2018-03-15T11:58:18.328Z,4.20
2018-03-15T12:00:44.687Z,4.30
2018-03-15T12:03:11.766Z,4.40
2018-03-15T12:05:38.083Z,4.40
2018-03-15T12:08:04.468Z,4.50
2018-03-15T12:10:30.800Z,4.50
2018-03-15T12:12:57.237Z,4.30
2018-03-15T12:15:23.596Z,4.20
2018-03-15T12:17:49.969Z,4.30
2018-03-15T12:20:16.307Z,4.50
2018-03-15T12:22:42.648Z,4.60
2018-03-15T12:25:08.976Z,4.40
2018-03-15T12:27:35.297Z,4.40
2018-03-15T12:30:01.624Z,4.40
2018-03-15T12:32:27.981Z,4.50
2018-03-15T12:34:55.993Z,4.50
2018-03-15T12:37:23.058Z,4.60
2018-03-15T12:39:49.390Z,4.60
2018-03-15T12:42:15.706Z,4.70
2018-03-15T12:44:42.783Z,4.80
2018-03-15T12:47:09.097Z,4.80
2018-03-15T12:49:35.448Z,4.60
2018-03-15T12:52:01.777Z,4.60
2018-03-15T12:54:28.123Z,4.60
2018-03-15T12:56:54.502Z,4.60
2018-03-15T12:59:21.602Z,4.70
2018-03-15T13:01:47.954Z,4.60
2018-03-15T13:04:15.062Z,4.80
2018-03-15T13:06:41.409Z,4.80
2018-03-15T13:09:07.753Z,4.80
2018-03-15T13:11:34.111Z,4.80
2018-03-15T13:14:01.235Z,5.20
2018-03-15T13:16:28.382Z,5.20
2018-03-15T13:18:55.487Z,5.30
2018-03-15T13:21:21.807Z,5.30
2018-03-15T13:23:48.163Z,5.40
2018-03-15T13:26:14.521Z,5.30
2018-03-15T13:28:40.889Z,5.30
2018-03-15T13:31:07.990Z,5.60
2018-03-15T13:33:34.313Z,5.50
2018-03-15T13:36:00.662Z,5.60
2018-03-15T13:38:27.039Z,5.80
2018-03-15T13:40:53.396Z,5.60
2018-03-15T13:43:19.727Z,5.60
2018-03-15T13:45:46.092Z,5.50
2018-03-15T13:48:13.177Z,5.60
2018-03-15T13:50:40.254Z,5.50
2018-03-15T13:53:06.584Z,5.50
2018-03-15T13:55:32.916Z,5.70
2018-03-15T13:57:59.244Z,5.60
2018-03-15T14:00:25.935Z,5.70
2018-03-15T14:02:53.004Z,5.70
2018-03-15T14:05:19.343Z,5.70
2018-03-15T14:07:45.707Z,5.70
2018-03-15T14:10:12.044Z,5.60
2018-03-15T14:12:39.168Z,5.50
2018-03-15T14:15:05.568Z,5.50
2018-03-15T14:17:32.629Z,5.30
2018-03-15T14:19:58.997Z,5.20
2018-03-15T14:22:25.315Z,5.30
2018-03-15T14:24:51.654Z,5.40
2018-03-15T14:27:17.984Z,5.40
2018-03-15T14:29:44.363Z,5.50
2018-03-15T14:32:10.717Z,5.40
2018-03-15T14:34:37.788Z,5.30
2018-03-15T14:37:04.120Z,5.30
2018-03-15T14:39:30.440Z,5.40
2018-03-15T14:41:56.753Z,5.20
2018-03-15T14:44:23.101Z,5.20
2018-03-15T14:46:49.440Z,5.30
2018-03-15T14:49:15.781Z,5.30
2018-03-15T14:51:42.106Z,5.30
2018-03-15T14:54:08.555Z,5.30
2018-03-15T14:56:34.884Z,5.20
2018-03-15T14:59:01.193Z,5.30
2018-03-15T15:01:27.552Z,5.20
2018-03-15T15:03:53.878Z,5.30
2018-03-15T15:06:20.266Z,5.20
2018-03-15T15:08:47.329Z,4.80
2018-03-15T15:11:13.645Z,4.80
2018-03-15T15:13:39.969Z,4.80
2018-03-15T15:16:07.040Z,4.70
2018-03-15T15:18:33.380Z,4.70
2018-03-15T15:20:59.720Z,4.60
2018-03-15T15:23:26.039Z,4.60
2018-03-15T15:25:52.373Z,4.60
2018-03-15T15:28:18.717Z,4.50
2018-03-15T15:30:45.060Z,4.40
2018-03-15T15:33:11.383Z,4.50
2018-03-15T15:35:37.693Z,4.50
2018-03-15T15:38:04.068Z,4.40
2018-03-15T15:40:31.142Z,4.40
2018-03-15T15:42:57.490Z,4.40
2018-03-15T15:45:23.825Z,4.50
2018-03-15T15:47:50.186Z,4.50
2018-03-15T15:50:17.314Z,4.30
2018-03-15T15:52:43.652Z,4.20
2018-03-15T15:55:09.978Z,4.40
2018-03-15T15:57:36.301Z,4.40
2018-03-15T16:00:02.847Z,4.50
2018-03-15T16:02:29.215Z,4.50
2018-03-15T16:04:56.275Z,4.60
2018-03-15T16:07:23.343Z,4.50
2018-03-15T16:09:49.718Z,4.50
2018-03-15T16:12:16.045Z,4.50
2018-03-15T16:14:42.362Z,4.60
2018-03-15T16:17:08.683Z,4.60
2018-03-15T16:19:35.783Z,4.70
2018-03-15T16:22:02.875Z,4.60
2018-03-15T16:24:29.178Z,4.50
2018-03-15T16:26:56.304Z,4.60
2018-03-15T16:29:29.868Z,4.50
2018-03-15T16:31:56.192Z,4.50
2018-03-15T16:34:22.508Z,4.40
2018-03-15T16:36:48.824Z,4.30
2018-03-15T16:39:15.126Z,4.30
2018-03-15T16:41:42.200Z,4.40
2018-03-15T16:44:08.534Z,4.40
2018-03-15T16:46:34.834Z,4.30
2018-03-15T16:49:01.885Z,4.20
2018-03-15T16:51:28.929Z,4.20
2018-03-15T16:53:56.003Z,4.20
2018-03-15T16:56:22.312Z,4.20
2018-03-15T16:58:49.373Z,4.20
2018-03-15T17:01:16.415Z,4.20
2018-03-15T17:03:43.467Z,4.10
2018-03-15T17:06:10.519Z,4.00
2018-03-15T17:08:36.849Z,4.00
2018-03-15T17:11:03.186Z,4.00
2018-03-15T17:13:29.510Z,4.10
2018-03-15T17:15:56.553Z,4.10
2018-03-15T17:18:23.632Z,4.00
2018-03-15T17:20:49.941Z,4.00
2018-03-15T17:23:16.258Z,3.90
2018-03-15T17:25:43.304Z,4.00
2018-03-15T17:28:10.365Z,3.80
2018-03-15T17:30:36.688Z,3.80
2018-03-15T17:33:03.857Z,3.90
2018-03-15T17:35:30.263Z,3.80
2018-03-15T17:37:57.343Z,3.90
2018-03-15T17:40:23.630Z,3.90
2018-03-15T17:42:50.674Z,3.80
2018-03-15T17:45:17.738Z,4.10
2018-03-15T17:47:44.770Z,3.90
2018-03-15T17:50:11.847Z,4.00
2018-03-15T17:52:38.156Z,3.90
2018-03-15T17:55:05.235Z,3.90
2018-03-15T17:57:31.570Z,3.80
2018-03-15T17:59:57.881Z,3.80
2018-03-15T18:02:24.205Z,3.80
2018-03-15T18:04:51.251Z,3.80
2018-03-15T18:07:18.293Z,3.80
2018-03-15T18:09:45.360Z,3.70
2018-03-15T18:12:11.652Z,3.70
2018-03-15T18:14:38.721Z,3.50
2018-03-15T18:17:05.782Z,3.50
2018-03-15T18:19:32.113Z,3.50
2018-03-15T18:21:58.443Z,3.50
2018-03-15T18:24:24.763Z,3.40
2018-03-15T18:26:51.052Z,3.40
2018-03-15T18:29:17.394Z,3.40
2018-03-15T18:31:44.471Z,3.40
2018-03-15T18:34:11.580Z,3.40
2018-03-15T18:36:37.916Z,3.30
2018-03-15T18:39:04.237Z,3.50
2018-03-15T18:41:31.327Z,3.40
2018-03-15T18:43:58.400Z,3.40
2018-03-15T18:46:24.731Z,3.40
2018-03-15T18:48:51.036Z,3.40
2018-03-15T18:51:17.398Z,3.30
2018-03-15T18:53:43.751Z,3.30
2018-03-15T18:56:10.872Z,3.30
2018-03-15T18:58:37.174Z,3.20
2018-03-15T19:01:04.280Z,3.30
2018-03-15T19:03:31.352Z,3.20
2018-03-15T19:05:58.411Z,3.20
2018-03-15T19:08:25.463Z,3.10
2018-03-15T19:10:51.790Z,3.00
2018-03-15T19:13:18.842Z,2.90
2018-03-15T19:15:45.218Z,2.90
2018-03-15T19:18:11.548Z,2.90
2018-03-15T19:20:37.911Z,2.70
2018-03-15T19:23:04.309Z,2.60
2018-03-15T19:25:30.654Z,2.60
2018-03-15T19:27:56.970Z,2.50
2018-03-15T19:30:23.308Z,2.40
2018-03-15T19:32:49.624Z,2.40
2018-03-15T19:35:15.961Z,2.30
2018-03-15T19:37:42.278Z,2.30
2018-03-15T19:40:08.615Z,2.20
2018-03-15T19:42:34.955Z,2.30
2018-03-15T19:45:01.297Z,2.20
2018-03-15T19:47:28.961Z,2.10
2018-03-15T19:49:55.589Z,2.10
2018-03-15T19:52:21.935Z,2.00
2018-03-15T19:54:48.258Z,2.00
2018-03-15T19:57:15.327Z,2.00
2018-03-15T19:59:42.398Z,2.00
2018-03-15T20:02:09.446Z,1.90
2018-03-15T20:04:36.486Z,1.90
2018-03-15T20:07:02.857Z,1.80
2018-03-15T20:09:29.166Z,1.90
2018-03-15T20:11:55.506Z,1.80
2018-03-15T20:14:21.905Z,1.90
2018-03-15T20:16:48.296Z,1.90
2018-03-15T20:19:17.677Z,1.90
2018-03-15T20:21:44.027Z,1.90
2018-03-15T20:24:16.601Z,1.80
2018-03-15T20:26:43.065Z,1.70
2018-03-15T20:29:10.147Z,1.70
2018-03-15T20:31:36.700Z,1.70
2018-03-15T20:34:07.917Z,1.90
2018-03-15T20:36:34.301Z,1.90
2018-03-15T20:39:01.441Z,1.90
2018-03-15T20:41:28.817Z,1.80
2018-03-15T20:43:55.212Z,1.90
2018-03-15T20:46:39.442Z,1.80
2018-03-15T20:49:06.791Z,1.70
2018-03-15T20:51:33.114Z,1.60
2018-03-15T20:54:00.219Z,1.70
2018-03-15T20:56:26.630Z,1.70
2018-03-15T20:58:52.965Z,1.70
2018-03-15T21:01:19.288Z,1.80
2018-03-15T21:03:45.645Z,1.80
2018-03-15T21:06:11.975Z,1.80
2018-03-15T21:08:38.355Z,1.80
2018-03-15T21:11:04.686Z,1.80
2018-03-15T21:13:31.014Z,1.70
2018-03-15T21:15:58.227Z,1.70
2018-03-15T21:18:24.558Z,1.60
2018-03-15T21:20:50.901Z,1.60
2018-03-15T21:23:18.006Z,1.60
2018-03-15T21:25:44.355Z,1.60
2018-03-15T21:28:11.449Z,1.70
2018-03-15T21:30:38.508Z,1.70
2018-03-15T21:33:04.853Z,1.70
2018-03-15T21:35:31.186Z,1.70
2018-03-15T21:37:57.503Z,1.60
2018-03-15T21:40:23.836Z,1.70
2018-03-15T21:42:50.204Z,1.70
2018-03-15T21:45:16.558Z,1.80
2018-03-15T21:47:43.633Z,1.80
2018-03-15T21:50:10.735Z,1.70
2018-03-15T21:52:37.066Z,1.70
2018-03-15T21:55:03.461Z,1.70
2018-03-15T21:57:29.772Z,1.70
2018-03-15T21:59:56.107Z,1.80
2018-03-15T22:02:22.436Z,1.90
2018-03-15T22:04:49.376Z,1.80
2018-03-15T22:07:15.792Z,1.70
2018-03-15T22:09:42.921Z,1.70
2018-03-15T22:12:10.279Z,1.80
2018-03-15T22:14:36.776Z,1.70
2018-03-15T22:17:03.184Z,1.90
2018-03-15T22:19:29.555Z,1.90
2018-03-15T22:21:55.938Z,2.00
2018-03-15T22:24:22.331Z,2.00
2018-03-15T22:26:48.764Z,2.10
2018-03-15T22:29:15.157Z,2.10
2018-03-15T22:31:41.560Z,2.10
2018-03-15T22:34:08.650Z,2.20
2018-03-15T22:36:35.006Z,2.10
2018-03-15T22:39:01.361Z,2.20
2018-03-15T22:41:28.494Z,2.30
2018-03-15T22:43:56.385Z,2.20
2018-03-15T22:46:23.506Z,2.10
2018-03-15T22:48:49.865Z,2.10
2018-03-15T22:51:16.241Z,2.10
2018-03-15T22:53:42.632Z,2.10
2018-03-15T22:56:09.770Z,2.10
2018-03-15T22:58:36.873Z,2.20
2018-03-15T23:01:03.283Z,2.10
2018-03-15T23:03:30.352Z,2.20
2018-03-15T23:05:56.730Z,2.20
2018-03-15T23:08:23.845Z,2.30
2018-03-15T23:10:50.390Z,2.20
2018-03-15T23:13:16.796Z,2.30
2018-03-15T23:15:43.159Z,2.20
2018-03-15T23:18:09.498Z,2.20
2018-03-15T23:20:36.628Z,2.40
2018-03-15T23:23:02.988Z,2.40
2018-03-15T23:25:30.120Z,2.30
2018-03-15T23:27:57.964Z,2.30
2018-03-15T23:30:24.311Z,2.30
2018-03-15T23:32:50.702Z,2.20
2018-03-15T23:35:17.076Z,2.20
2018-03-15T23:37:43.479Z,2.10
2018-03-15T23:40:09.858Z,2.00
2018-03-15T23:42:37.102Z,2.10
2018-03-15T23:45:03.471Z,2.00
2018-03-15T23:47:29.856Z,2.20
2018-03-15T23:49:56.212Z,2.20
2018-03-15T23:52:22.559Z,2.20
2018-03-15T23:54:49.054Z,2.30
2018-03-15T23:57:15.421Z,2.30
2018-03-15T23:59:41.879Z,2.30
